Berea, OH (44017)

7:35 AM EDT on August 25, 2016 (GMT -0400)
Southeast Berea | | Change Station

Elev 804 ft 41.36 °N, 81.84 °W | Updated 7 minutes ago

Mostly Cloudy
Mostly Cloudy
72.0 °F
Feels Like 72.0 °F
N
2.2
Wind Variable Wind from SSW

Today
High -- | Low -- °F
--% Chance of Precip.
Yesterday
High -- | Low -- °F
Precip. -- in
Pressure 30.04 in
Visibility 8.0 miles
Clouds Few 600 ft
Mostly Cloudy 1200 ft
Mostly Cloudy 25000 ft
Dew Point 70 °F
Humidity 93%
Rainfall 0.20 in
Snow Depth Not available.
6:47 AM 8:10 PM
Waning Gibbous, 46% visible
SPECI KCLE 251104Z 21006KT 8SM FEW006 BKN012 BKN250 23/21 A3004 RMK AO2 T02330211
Pressure 30.04 in
Visibility 8.0 miles
Clouds Few 600 ft
Mostly Cloudy 1200 ft
Mostly Cloudy 25000 ft
Dew Point 70 °F
Humidity 93%
Rainfall 0.20 in
Snow Depth Not available.
6:47 AM 8:10 PM
Waning Gibbous, 46% visible
SPECI KCLE 251104Z 21006KT 8SM FEW006 BKN012 BKN250 23/21 A3004 RMK AO2 T02330211

10-Day Weather Forecast

Almanac

Astronomy

Aug. 25, 2016 Rise Set
Actual Time
Civil Twilight
Nautical Twilight
Astronomical Twilight
Moon
Length of Visible Light
Length of Day
Tomorrow will be .
, % of the Moon is Illuminated

Today's Extremes

State Highs State Lows

Community

WunderPhotos

Upload Photos

1,934,822 photos uploaded!

WunderBlog® & News

Nearby

Air Quality

  Air Quality AQ Index Pollutant
Not available.

Snow Depth

Station Depth Elevation

Earthquake Activity

City Distance Mag. Time & Date
Minimum magnitude displayed is 2.5.

Coastal Water Temperatures

Place Temperature

Stations

Nearby Weather Stations

Station Location Temp. Windchill Dew Point Humidity Wind Precip. Elev Updated Type
                   

Watches & Warnings

There are currently no watches in effect.